Terminal Aerodrome Forecast
Issued by NWS

Home | Current Version | Previous Version | Text Only | Print | Product List | Glossary On
Versions: 1 2 3 4 5 6 7 8 9 10 11 12 13
000
FTUS44 KLIX 251720
TAFMSY
TAF
KMSY 251720Z 2518/2624 14005KT 5SM TSRA SCT030CB BKN050
     FM260000 00000KT P6SM VCTS SCT020CB OVC250
     FM260300 00000KT P6SM SCT020 BKN250
     FM261400 04005KT 5SM SHRA VCTS SCT025CB BKN200
     FM261800 10005KT 5SM SHRA VCTS SCT040CB BKN150=

USA.gov is the U.S. government's official web portal to all federal, state and local government web resources and services.